Time;durP1;ratioP1;P1;durP2;ratioP2;P2;SDS_P1;SDS_P2;PMS_P1;PMS_P2;Temp;Humidity;BMP_temperature;BMP_pressure;BME280_temperature;BME280_humidity;BME280_pressure;Samples;Min_cycle;Max_cycle;Signal;HPM_P1;HPM_P2
2021/12/18 00:00:47;;;;;;;3.60;1.05;;;;;;;;;;4974024;28;20022;-59
2021/12/18 00:03:12;;;;;;;6.85;1.52;;;;;;;;;;4988865;28;20519;-59
2021/12/18 00:05:40;;;;;;;9.20;1.20;;;;;;;;;;5006767;28;20524;-59
2021/12/18 00:08:06;;;;;;;9.88;1.15;;;;;;;;;;4990124;28;20485;-59
2021/12/18 00:10:33;;;;;;;2.88;1.05;;;;;;;;;;5005532;28;20061;-59
2021/12/18 00:13:00;;;;;;;3.95;0.93;;;;;;;;;;4974003;28;20061;-59
2021/12/18 00:15:26;;;;;;;11.70;1.70;;;;;;;;;;4987914;28;20034;-60
2021/12/18 00:17:52;;;;;;;4.63;1.40;;;;;;;;;;4990266;28;20037;-60
2021/12/18 00:20:25;;;;;;;6.70;1.55;;;;;;;;;;4988252;28;20034;-60
2021/12/18 00:22:53;;;;;;;15.48;1.63;;;;;;;;;;4988062;28;20084;-60
2021/12/18 00:25:21;;;;;;;5.63;1.20;;;;;;;;;;4989525;28;20063;-59
2021/12/18 00:27:46;;;;;;;6.07;1.27;;;;;;;;;;4972837;28;20475;-59
2021/12/18 00:30:12;;;;;;;9.95;1.25;;;;;;;;;;4987929;28;20473;-59
2021/12/18 00:32:38;;;;;;;4.35;1.10;;;;;;;;;;4989708;28;20223;-59
2021/12/18 00:35:08;;;;;;;2.35;1.15;;;;;;;;;;4988881;28;20072;-60
2021/12/18 00:37:35;;;;;;;7.68;1.70;;;;;;;;;;4989557;28;20034;-58
2021/12/18 00:40:08;;;;;;;12.15;1.75;;;;;;;;;;4973025;28;20036;-58
2021/12/18 00:45:03;;;;;;;8.73;1.45;;;;;;;;;;4987658;28;20477;-59
2021/12/18 00:47:31;;;;;;;9.48;1.80;;;;;;;;;;4985975;28;20140;-59
2021/12/18 00:49:58;;;;;;;9.77;1.95;;;;;;;;;;4989434;28;20030;-59
2021/12/18 00:52:26;;;;;;;13.38;2.05;;;;;;;;;;4987643;28;20037;-60
2021/12/18 00:54:52;;;;;;;11.55;1.98;;;;;;;;;;4989132;28;20028;-60
2021/12/18 00:57:20;;;;;;;14.05;1.55;;;;;;;;;;4988279;28;20045;-59
2021/12/18 00:59:48;;;;;;;5.38;1.67;;;;;;;;;;4987973;28;20022;-59
2021/12/18 01:02:16;;;;;;;5.90;1.58;;;;;;;;;;4987683;28;20129;-59
2021/12/18 01:04:47;;;;;;;10.32;1.58;;;;;;;;;;4988262;28;22055;-59
2021/12/18 01:07:15;;;;;;;4.10;1.02;;;;;;;;;;4987575;28;20033;-60
2021/12/18 01:12:52;;;;;;;8.57;0.88;;;;;;;;;;4937371;28;20031;-59
2021/12/18 01:23:11;;;;;;;12.90;1.23;;;;;;;;;;4978103;28;20092;-58
2021/12/18 01:25:37;;;;;;;5.68;1.05;;;;;;;;;;4999881;28;20029;-60
2021/12/18 01:28:03;;;;;;;16.27;1.25;;;;;;;;;;4987294;28;20215;-61
2021/12/18 01:30:41;;;;;;;8.20;1.02;;;;;;;;;;4986851;28;20309;-60
2021/12/18 01:33:09;;;;;;;15.73;1.40;;;;;;;;;;4987559;28;20108;-60
2021/12/18 01:35:35;;;;;;;10.05;1.00;;;;;;;;;;4983724;28;20132;-60
2021/12/18 01:38:03;;;;;;;4.72;1.17;;;;;;;;;;4987770;28;20112;-60
2021/12/18 01:40:34;;;;;;;3.47;1.10;;;;;;;;;;4978263;28;20026;-61
2021/12/18 01:53:51;;;;;;;8.93;1.77;;;;;;;;;;4986491;28;20038;-59
2021/12/18 01:56:21;;;;;;;10.18;2.35;;;;;;;;;;4987053;28;20034;-59
2021/12/18 01:58:47;;;;;;;15.15;1.98;;;;;;;;;;4987115;28;20500;-58
2021/12/18 02:01:17;;;;;;;20.83;3.53;;;;;;;;;;4991359;28;20029;-59
2021/12/18 02:03:43;;;;;;;7.75;2.40;;;;;;;;;;4986746;28;20493;-60
2021/12/18 02:06:12;;;;;;;4.55;0.98;;;;;;;;;;4986930;28;20049;-59
2021/12/18 02:08:39;;;;;;;3.70;1.27;;;;;;;;;;4987206;28;20603;-59
2021/12/18 02:19:47;;;;;;;2.92;0.50;;;;;;;;;;4944656;28;20044;-60
2021/12/18 02:22:14;;;;;;;5.28;0.80;;;;;;;;;;4949554;28;20445;-59
2021/12/18 02:24:42;;;;;;;1.13;0.65;;;;;;;;;;4974505;28;20037;-59
2021/12/18 02:27:08;;;;;;;4.15;0.90;;;;;;;;;;4982987;28;20037;-57
2021/12/18 02:29:37;;;;;;;5.45;0.60;;;;;;;;;;4988569;28;20108;-60
2021/12/18 02:32:03;;;;;;;1.90;0.63;;;;;;;;;;4987969;28;20049;-60
2021/12/18 02:34:32;;;;;;;3.47;0.75;;;;;;;;;;4978033;28;20026;-60
2021/12/18 02:37:04;;;;;;;4.20;1.02;;;;;;;;;;4987329;28;20409;-60
2021/12/18 02:42:13;;;;;;;1.70;0.60;;;;;;;;;;4984826;28;20079;-59
2021/12/18 02:44:45;;;;;;;1.92;0.85;;;;;;;;;;4987781;28;20044;-59
2021/12/18 02:47:12;;;;;;;4.35;0.88;;;;;;;;;;4985294;28;20040;-59
2021/12/18 02:49:48;;;;;;;2.70;0.80;;;;;;;;;;4969676;28;20022;-59
2021/12/18 02:52:17;;;;;;;1.08;0.60;;;;;;;;;;4980333;28;20030;-59
2021/12/18 02:54:45;;;;;;;5.05;0.60;;;;;;;;;;4987676;28;20033;-59
2021/12/18 02:57:14;;;;;;;3.05;0.65;;;;;;;;;;4987979;28;20404;-59
2021/12/18 02:59:46;;;;;;;1.40;0.73;;;;;;;;;;4986631;28;20169;-59
2021/12/18 03:02:15;;;;;;;6.70;0.80;;;;;;;;;;4986635;28;20049;-59
2021/12/18 03:04:47;;;;;;;4.05;0.40;;;;;;;;;;5000157;28;20030;-59
2021/12/18 03:07:15;;;;;;;1.90;0.60;;;;;;;;;;4984044;28;20038;-58
2021/12/18 03:23:31;;;;;;;15.20;0.90;;;;;;;;;;5000974;28;20038;-60
2021/12/18 03:26:00;;;;;;;3.47;0.43;;;;;;;;;;4985139;28;20038;-58
2021/12/18 03:28:30;;;;;;;10.93;0.77;;;;;;;;;;4986090;28;20021;-60
2021/12/18 03:30:56;;;;;;;6.25;0.93;;;;;;;;;;4986448;28;20038;-59
2021/12/18 03:33:23;;;;;;;1.63;0.70;;;;;;;;;;4985221;28;20372;-59
2021/12/18 03:35:48;;;;;;;7.78;0.82;;;;;;;;;;4986345;28;20756;-59
2021/12/18 03:38:19;;;;;;;2.15;0.82;;;;;;;;;;4983568;28;20026;-60
2021/12/18 03:40:46;;;;;;;1.52;0.55;;;;;;;;;;4978388;28;20042;-60
2021/12/18 03:43:14;;;;;;;3.40;0.85;;;;;;;;;;4989607;28;20033;-58
2021/12/18 03:45:39;;;;;;;2.63;0.47;;;;;;;;;;4986631;28;20026;-59
2021/12/18 03:48:09;;;;;;;6.45;1.10;;;;;;;;;;5001641;28;20052;-58
2021/12/18 03:50:40;;;;;;;4.25;0.80;;;;;;;;;;4969413;28;20572;-60
2021/12/18 03:53:08;;;;;;;5.07;1.00;;;;;;;;;;4984337;28;20033;-57
2021/12/18 03:55:33;;;;;;;4.43;0.93;;;;;;;;;;4975787;28;20052;-58
2021/12/18 03:58:01;;;;;;;8.18;1.00;;;;;;;;;;4984273;28;20042;-58
2021/12/18 04:00:26;;;;;;;5.40;1.45;;;;;;;;;;4973661;28;20049;-58
2021/12/18 04:02:52;;;;;;;2.85;1.40;;;;;;;;;;4973343;28;20030;-58
2021/12/18 04:05:20;;;;;;;4.18;0.90;;;;;;;;;;4982075;28;20033;-59
2021/12/18 04:07:49;;;;;;;2.80;1.15;;;;;;;;;;4990582;28;20046;-59
2021/12/18 04:10:17;;;;;;;2.40;1.10;;;;;;;;;;4994443;28;20037;-60
2021/12/18 04:12:43;;;;;;;3.15;1.58;;;;;;;;;;4989415;28;20400;-60
2021/12/18 04:15:08;;;;;;;7.10;1.60;;;;;;;;;;4987909;28;20029;-60
2021/12/18 04:17:36;;;;;;;6.10;1.30;;;;;;;;;;4988629;28;20033;-61
2021/12/18 04:20:02;;;;;;;4.90;1.13;;;;;;;;;;4989824;28;20278;-60
2021/12/18 04:22:28;;;;;;;8.27;1.58;;;;;;;;;;4962962;28;20081;-59
2021/12/18 04:24:55;;;;;;;6.63;1.85;;;;;;;;;;4956526;28;20121;-60
2021/12/18 04:27:24;;;;;;;4.65;1.45;;;;;;;;;;5006041;28;21118;-60
2021/12/18 04:29:49;;;;;;;7.32;1.70;;;;;;;;;;4981182;28;20034;-59
2021/12/18 04:32:19;;;;;;;5.35;1.90;;;;;;;;;;4989341;28;21168;-59
2021/12/18 04:34:47;;;;;;;5.28;1.27;;;;;;;;;;4985833;28;20026;-59
2021/12/18 04:37:17;;;;;;;4.40;1.52;;;;;;;;;;4990589;28;20128;-59
2021/12/18 04:39:45;;;;;;;4.22;1.73;;;;;;;;;;4989509;28;20606;-59
2021/12/18 04:42:11;;;;;;;5.40;1.63;;;;;;;;;;4973264;28;21033;-59
2021/12/18 04:44:36;;;;;;;6.35;1.70;;;;;;;;;;4989901;28;20038;-60
2021/12/18 04:47:02;;;;;;;4.22;1.63;;;;;;;;;;4983414;28;20152;-59
2021/12/18 04:49:30;;;;;;;8.57;1.95;;;;;;;;;;4988904;28;20060;-59
2021/12/18 04:52:02;;;;;;;3.35;1.25;;;;;;;;;;4988737;28;20029;-60
2021/12/18 04:54:29;;;;;;;4.80;1.67;;;;;;;;;;4987838;28;20037;-60
2021/12/18 04:56:58;;;;;;;4.07;1.73;;;;;;;;;;4988789;28;20045;-59
2021/12/18 04:59:25;;;;;;;10.52;2.65;;;;;;;;;;4988272;28;20037;-60
2021/12/18 05:01:56;;;;;;;6.20;2.55;;;;;;;;;;4980859;28;20034;-60
2021/12/18 05:04:26;;;;;;;6.22;2.15;;;;;;;;;;4988610;28;20042;-60
2021/12/18 05:06:53;;;;;;;6.63;2.53;;;;;;;;;;4980662;28;20041;-60
2021/12/18 05:09:18;;;;;;;9.40;2.20;;;;;;;;;;4989890;28;20207;-59
2021/12/18 05:11:46;;;;;;;8.15;2.65;;;;;;;;;;4980917;28;20926;-60
2021/12/18 05:14:14;;;;;;;7.50;2.65;;;;;;;;;;4989181;28;20070;-61
2021/12/18 05:16:40;;;;;;;8.02;1.75;;;;;;;;;;4998003;28;20033;-59
2021/12/18 05:19:06;;;;;;;11.20;2.78;;;;;;;;;;4989970;28;20995;-60
2021/12/18 05:21:32;;;;;;;7.28;2.08;;;;;;;;;;4988414;28;21568;-59
2021/12/18 05:24:03;;;;;;;9.95;2.97;;;;;;;;;;4990289;28;20045;-60
2021/12/18 05:26:31;;;;;;;9.80;2.92;;;;;;;;;;5004002;28;20045;-59
2021/12/18 05:28:59;;;;;;;8.07;3.10;;;;;;;;;;4987580;28;20643;-59
2021/12/18 05:31:27;;;;;;;8.18;2.72;;;;;;;;;;4986043;28;20124;-59
2021/12/18 05:33:59;;;;;;;14.70;3.00;;;;;;;;;;4963209;28;20469;-59
2021/12/18 05:36:35;;;;;;;8.75;2.65;;;;;;;;;;4985823;28;20038;-59
2021/12/18 05:39:06;;;;;;;13.10;3.20;;;;;;;;;;4986525;28;20064;-59
2021/12/18 05:41:31;;;;;;;13.60;2.92;;;;;;;;;;4987030;28;20104;-59
2021/12/18 05:43:57;;;;;;;17.42;3.08;;;;;;;;;;4985441;28;20124;-59
2021/12/18 05:46:25;;;;;;;12.73;3.72;;;;;;;;;;4980176;28;20037;-59
2021/12/18 05:48:53;;;;;;;6.63;2.85;;;;;;;;;;4985340;28;20021;-59
2021/12/18 05:51:21;;;;;;;13.35;3.03;;;;;;;;;;4984974;28;20467;-59
2021/12/18 05:53:49;;;;;;;14.93;3.42;;;;;;;;;;4983172;28;20049;-59
2021/12/18 05:56:17;;;;;;;12.30;2.70;;;;;;;;;;4986528;28;20114;-59
2021/12/18 05:58:44;;;;;;;9.90;3.42;;;;;;;;;;4984112;28;20030;-59
2021/12/18 06:01:11;;;;;;;10.20;3.17;;;;;;;;;;5003492;28;20111;-59
2021/12/18 06:03:39;;;;;;;8.05;3.25;;;;;;;;;;4986278;28;20795;-59
2021/12/18 06:06:07;;;;;;;15.70;3.90;;;;;;;;;;4984886;28;20031;-59
2021/12/18 06:08:36;;;;;;;10.95;4.05;;;;;;;;;;4987559;28;20022;-59
2021/12/18 06:11:10;;;;;;;13.85;3.53;;;;;;;;;;4988682;28;20042;-59
2021/12/18 06:13:40;;;;;;;9.60;3.25;;;;;;;;;;4971361;28;20042;-59
2021/12/18 06:16:08;;;;;;;10.18;3.20;;;;;;;;;;4986427;28;20121;-59
2021/12/18 06:18:34;;;;;;;6.10;2.58;;;;;;;;;;4988672;28;20041;-58
2021/12/18 06:21:00;;;;;;;12.68;3.58;;;;;;;;;;4988799;28;20069;-58
2021/12/18 06:23:28;;;;;;;12.13;2.78;;;;;;;;;;4986282;28;20093;-59
2021/12/18 06:25:55;;;;;;;6.68;2.78;;;;;;;;;;4988517;28;20053;-59
2021/12/18 06:28:22;;;;;;;6.80;2.60;;;;;;;;;;4971095;28;20560;-59
2021/12/18 06:30:49;;;;;;;8.70;2.78;;;;;;;;;;4987882;28;20053;-59
2021/12/18 06:33:14;;;;;;;6.68;2.13;;;;;;;;;;5002868;28;21987;-59
2021/12/18 06:35:43;;;;;;;7.07;2.42;;;;;;;;;;4985520;28;21639;-60
2021/12/18 06:38:08;;;;;;;10.48;2.58;;;;;;;;;;4987950;28;20034;-59
2021/12/18 06:40:39;;;;;;;13.48;3.00;;;;;;;;;;4987538;28;20098;-59
2021/12/18 06:43:05;;;;;;;8.45;2.45;;;;;;;;;;4988357;28;20574;-58
2021/12/18 06:45:34;;;;;;;10.18;2.45;;;;;;;;;;4987321;28;20168;-58
2021/12/18 06:48:00;;;;;;;10.70;2.30;;;;;;;;;;5001965;28;20044;-60
2021/12/18 06:50:31;;;;;;;10.60;3.03;;;;;;;;;;4987738;28;20257;-59
2021/12/18 06:53:01;;;;;;;16.40;2.63;;;;;;;;;;4999403;28;20033;-58
2021/12/18 06:55:29;;;;;;;5.60;1.75;;;;;;;;;;4982915;28;20034;-58
2021/12/18 06:57:57;;;;;;;7.90;2.25;;;;;;;;;;4983996;28;20547;-60
2021/12/18 07:00:23;;;;;;;10.27;2.60;;;;;;;;;;4966745;28;20038;-59
2021/12/18 07:02:49;;;;;;;4.05;2.05;;;;;;;;;;4985776;28;20026;-60
2021/12/18 07:05:16;;;;;;;8.75;2.03;;;;;;;;;;4987573;28;20446;-59
2021/12/18 07:07:42;;;;;;;10.93;2.30;;;;;;;;;;4985843;28;20187;-59
2021/12/18 07:10:09;;;;;;;12.43;2.60;;;;;;;;;;4984976;28;20040;-59
2021/12/18 07:12:38;;;;;;;4.97;1.95;;;;;;;;;;4987269;28;20022;-60
2021/12/18 07:15:04;;;;;;;6.97;1.90;;;;;;;;;;4985267;28;21381;-60
2021/12/18 07:17:30;;;;;;;12.77;2.00;;;;;;;;;;4960270;28;20033;-59
2021/12/18 07:20:00;;;;;;;6.00;1.98;;;;;;;;;;4977755;28;20730;-58
2021/12/18 07:22:28;;;;;;;6.68;1.85;;;;;;;;;;4983806;28;20040;-59
2021/12/18 07:24:56;;;;;;;4.72;1.88;;;;;;;;;;4984170;28;20037;-59
2021/12/18 07:27:24;;;;;;;4.22;2.10;;;;;;;;;;4983945;28;20037;-59
2021/12/18 07:29:50;;;;;;;21.83;2.65;;;;;;;;;;4987446;28;20033;-60
2021/12/18 07:32:18;;;;;;;6.10;2.30;;;;;;;;;;4986456;28;20052;-59
2021/12/18 07:34:45;;;;;;;13.82;2.53;;;;;;;;;;4987180;28;20507;-59
2021/12/18 07:37:11;;;;;;;8.57;2.42;;;;;;;;;;4985720;28;20049;-60
2021/12/18 07:39:39;;;;;;;12.63;2.53;;;;;;;;;;4986137;28;20030;-59
2021/12/18 07:42:05;;;;;;;7.07;2.25;;;;;;;;;;4984538;28;20084;-59
2021/12/18 07:44:31;;;;;;;9.75;2.30;;;;;;;;;;4988022;28;20052;-59
2021/12/18 07:46:57;;;;;;;8.95;2.58;;;;;;;;;;4990481;28;20042;-59
2021/12/18 07:49:22;;;;;;;16.20;2.38;;;;;;;;;;4986793;28;20045;-59
2021/12/18 07:51:54;;;;;;;10.18;2.10;;;;;;;;;;4988027;28;20096;-58
2021/12/18 07:54:22;;;;;;;17.13;2.75;;;;;;;;;;4986558;28;20053;-58
2021/12/18 07:56:47;;;;;;;12.15;2.58;;;;;;;;;;4989687;28;20164;-59
2021/12/18 07:59:13;;;;;;;14.75;2.58;;;;;;;;;;4988055;28;20065;-58
2021/12/18 08:01:45;;;;;;;11.65;2.38;;;;;;;;;;4989700;28;20041;-58
2021/12/18 08:04:11;;;;;;;5.00;1.92;;;;;;;;;;5000985;28;20074;-58
2021/12/18 08:06:39;;;;;;;8.13;1.98;;;;;;;;;;4986400;28;20041;-58
2021/12/18 08:09:08;;;;;;;18.55;2.10;;;;;;;;;;4987038;28;20030;-58
2021/12/18 08:11:36;;;;;;;7.97;1.95;;;;;;;;;;4986746;28;20081;-58
2021/12/18 08:14:06;;;;;;;7.45;2.10;;;;;;;;;;5000995;28;20043;-58
2021/12/18 08:16:34;;;;;;;10.35;2.15;;;;;;;;;;4987421;28;20945;-57
2021/12/18 08:18:59;;;;;;;9.13;1.83;;;;;;;;;;4988203;28;20713;-58
2021/12/18 08:21:25;;;;;;;4.05;1.42;;;;;;;;;;4988202;28;20077;-58
2021/12/18 08:23:56;;;;;;;14.73;1.75;;;;;;;;;;4987444;28;20026;-58
2021/12/18 08:26:21;;;;;;;3.00;1.40;;;;;;;;;;4987533;28;20179;-58
2021/12/18 08:28:47;;;;;;;6.28;1.60;;;;;;;;;;4979595;28;20652;-58
2021/12/18 08:31:14;;;;;;;9.10;1.63;;;;;;;;;;4969003;28;20030;-58
2021/12/18 08:33:42;;;;;;;5.40;1.30;;;;;;;;;;4970889;28;20061;-58
2021/12/18 08:36:08;;;;;;;16.60;1.45;;;;;;;;;;4985548;28;20028;-58
2021/12/18 08:38:36;;;;;;;7.22;1.10;;;;;;;;;;4984010;28;20057;-58
2021/12/18 08:41:03;;;;;;;3.92;1.38;;;;;;;;;;4986845;28;21317;-58
2021/12/18 08:43:29;;;;;;;1.85;1.10;;;;;;;;;;4985984;28;20509;-58
2021/12/18 08:45:55;;;;;;;5.30;1.48;;;;;;;;;;4988822;28;20655;-58
2021/12/18 08:48:23;;;;;;;2.88;1.05;;;;;;;;;;4986346;28;20041;-58
2021/12/18 08:50:48;;;;;;;3.22;1.48;;;;;;;;;;5004229;28;20053;-58
2021/12/18 08:53:13;;;;;;;11.00;1.77;;;;;;;;;;4988247;28;20030;-58
2021/12/18 08:55:39;;;;;;;10.43;1.55;;;;;;;;;;4986705;28;22074;-58
2021/12/18 08:58:05;;;;;;;4.28;1.35;;;;;;;;;;4986578;28;20107;-59
2021/12/18 09:00:32;;;;;;;3.53;1.27;;;;;;;;;;4983866;28;20038;-58
2021/12/18 09:03:00;;;;;;;18.15;1.88;;;;;;;;;;4985719;28;20030;-59
2021/12/18 09:05:26;;;;;;;7.68;1.73;;;;;;;;;;4983913;28;20049;-60
2021/12/18 09:07:57;;;;;;;5.05;1.27;;;;;;;;;;4987494;28;20859;-59
2021/12/18 09:10:23;;;;;;;5.57;1.50;;;;;;;;;;4948249;28;1111710;-58
2021/12/18 09:12:49;;;;;;;5.82;1.67;;;;;;;;;;4985650;28;20490;-58
2021/12/18 09:15:15;;;;;;;10.25;1.90;;;;;;;;;;5002490;28;20036;-58
2021/12/18 09:17:40;;;;;;;6.60;2.03;;;;;;;;;;4971060;28;20117;-58
2021/12/18 09:20:06;;;;;;;13.13;2.05;;;;;;;;;;4985788;28;20037;-60
2021/12/18 09:22:34;;;;;;;4.93;2.05;;;;;;;;;;5002934;28;20038;-59
2021/12/18 09:25:05;;;;;;;5.28;2.03;;;;;;;;;;4986050;28;20765;-59
2021/12/18 09:27:30;;;;;;;11.90;2.10;;;;;;;;;;4986501;28;20381;-58
2021/12/18 09:29:56;;;;;;;4.53;2.05;;;;;;;;;;4987800;28;20021;-58
2021/12/18 09:32:21;;;;;;;7.38;2.10;;;;;;;;;;4986743;28;20120;-58
2021/12/18 09:34:49;;;;;;;7.43;2.72;;;;;;;;;;4988339;28;20022;-59
2021/12/18 09:37:18;;;;;;;8.07;2.50;;;;;;;;;;4988021;28;20037;-59
2021/12/18 09:39:43;;;;;;;6.25;2.45;;;;;;;;;;5004188;28;20092;-59
2021/12/18 09:42:13;;;;;;;7.05;3.03;;;;;;;;;;4989436;28;20121;-59
2021/12/18 09:44:41;;;;;;;5.25;2.17;;;;;;;;;;4986745;28;20049;-59
2021/12/18 09:47:12;;;;;;;9.65;2.88;;;;;;;;;;4987067;28;20486;-59
2021/12/18 09:49:38;;;;;;;6.78;1.90;;;;;;;;;;4962167;28;20120;-59
2021/12/18 09:52:06;;;;;;;7.53;1.85;;;;;;;;;;5000964;28;20109;-58
2021/12/18 09:54:31;;;;;;;6.32;2.30;;;;;;;;;;4986119;28;20021;-58
2021/12/18 09:56:57;;;;;;;14.93;2.78;;;;;;;;;;4986346;28;20452;-58
2021/12/18 09:59:25;;;;;;;4.28;1.95;;;;;;;;;;4978527;28;20030;-58
2021/12/18 10:01:53;;;;;;;3.78;1.83;;;;;;;;;;4985868;28;20033;-59
2021/12/18 10:04:28;;;;;;;3.47;1.67;;;;;;;;;;4981523;28;20807;-58
2021/12/18 10:06:53;;;;;;;;;;;;;;;;;;5001304;28;20405;-58
2021/12/18 10:09:19;;;;;;;10.05;2.05;;;;;;;;;;4989390;28;19924;-59
2021/12/18 10:11:44;;;;;;;10.00;2.47;;;;;;;;;;4985352;28;20124;-58
2021/12/18 10:14:10;;;;;;;22.77;2.40;;;;;;;;;;4984639;28;20036;-59
2021/12/18 10:16:41;;;;;;;7.35;2.55;;;;;;;;;;4985658;28;20069;-59
2021/12/18 10:19:23;;;;;;;8.82;2.72;;;;;;;;;;4986196;28;20168;-59
2021/12/18 10:22:01;;;;;;;9.20;2.40;;;;;;;;;;4984823;28;20034;-59
2021/12/18 10:24:28;;;;;;;10.68;2.72;;;;;;;;;;4985419;28;20485;-59
2021/12/18 10:26:54;;;;;;;5.72;3.00;;;;;;;;;;4986960;28;20037;-59
2021/12/18 10:29:25;;;;;;;10.43;2.88;;;;;;;;;;4967933;28;20674;-59
2021/12/18 10:31:50;;;;;;;8.05;2.72;;;;;;;;;;4977616;28;20088;-59
2021/12/18 10:34:20;;;;;;;13.95;2.47;;;;;;;;;;4982081;28;20057;-59
2021/12/18 10:37:07;;;;;;;4.75;2.40;;;;;;;;;;4985227;28;20034;-59
2021/12/18 10:39:44;;;;;;;11.20;2.92;;;;;;;;;;5000308;28;20038;-59
2021/12/18 10:42:15;;;;;;;6.45;1.92;;;;;;;;;;4979512;28;20053;-57
2021/12/18 10:45:03;;;;;;;10.07;2.05;;;;;;;;;;4977164;28;20807;-59
2021/12/18 10:47:49;;;;;;;10.57;2.30;;;;;;;;;;4980668;28;20042;-59
2021/12/18 10:50:15;;;;;;;8.88;2.22;;;;;;;;;;4983212;28;20080;-58
2021/12/18 10:52:45;;;;;;;6.10;2.35;;;;;;;;;;4985544;28;20034;-59
2021/12/18 10:55:13;;;;;;;10.60;2.38;;;;;;;;;;4983582;28;20058;-58
2021/12/18 10:57:51;;;;;;;4.05;1.90;;;;;;;;;;4979720;28;20030;-59
2021/12/18 11:00:37;;;;;;;8.73;2.17;;;;;;;;;;4985079;28;20037;-60
2021/12/18 11:03:24;;;;;;;4.38;2.15;;;;;;;;;;4988502;28;20053;-59
2021/12/18 11:06:05;;;;;;;7.80;2.25;;;;;;;;;;4987448;28;20197;-59
2021/12/18 11:08:36;;;;;;;7.78;1.98;;;;;;;;;;4990203;28;20038;-59
2021/12/18 11:13:38;;;;;;;8.43;2.15;;;;;;;;;;4981772;28;20159;-59
2021/12/18 11:13:52;;;;;;;8.80;2.15;;;;;;;;;;4989655;28;21853;-59
2021/12/18 11:16:22;;;;;;;6.90;1.67;;;;;;;;;;4989436;28;20516;-59
2021/12/18 11:18:50;;;;;;;8.57;1.75;;;;;;;;;;4990104;28;20033;-59
2021/12/18 11:21:18;;;;;;;8.98;2.15;;;;;;;;;;4988453;28;20037;-59
2021/12/18 11:23:47;;;;;;;9.10;1.45;;;;;;;;;;4986856;28;20671;-59
2021/12/18 11:26:13;;;;;;;8.13;1.75;;;;;;;;;;4988426;28;20129;-59
2021/12/18 11:28:48;;;;;;;5.53;1.30;;;;;;;;;;4990390;28;20034;-59
2021/12/18 11:31:16;;;;;;;5.55;1.63;;;;;;;;;;4990010;28;20473;-59
2021/12/18 11:33:43;;;;;;;6.43;2.10;;;;;;;;;;4980288;28;20767;-59
2021/12/18 11:36:09;;;;;;;15.60;2.58;;;;;;;;;;4977869;28;20034;-59
2021/12/18 11:38:37;;;;;;;5.55;2.00;;;;;;;;;;4989546;28;20026;-59
2021/12/18 11:41:02;;;;;;;3.80;1.58;;;;;;;;;;4990945;28;20038;-59
2021/12/18 11:43:30;;;;;;;6.85;1.85;;;;;;;;;;4988641;28;20077;-59
2021/12/18 11:45:55;;;;;;;12.05;2.47;;;;;;;;;;4989024;28;20033;-59
2021/12/18 11:48:24;;;;;;;6.65;1.55;;;;;;;;;;4987262;28;20080;-59
2021/12/18 11:50:52;;;;;;;3.10;1.40;;;;;;;;;;4990795;28;20038;-59
2021/12/18 11:53:32;;;;;;;19.88;2.20;;;;;;;;;;4989915;28;20034;-59
2021/12/18 11:56:03;;;;;;;14.55;2.63;;;;;;;;;;4991345;28;20400;-59
2021/12/18 11:58:37;;;;;;;5.63;1.67;;;;;;;;;;4987617;28;20037;-60
2021/12/18 12:01:05;;;;;;;13.60;2.17;;;;;;;;;;5005885;28;20038;-60
2021/12/18 12:03:38;;;;;;;8.10;2.28;;;;;;;;;;4972466;28;20985;-59
2021/12/18 12:06:28;;;;;;;8.30;2.13;;;;;;;;;;4979925;28;20040;-60
2021/12/18 12:09:36;;;;;;;4.95;1.83;;;;;;;;;;4994338;28;20034;-59
2021/12/18 12:12:07;;;;;;;4.07;1.60;;;;;;;;;;4979872;28;20081;-59
2021/12/18 12:14:36;;;;;;;8.85;1.73;;;;;;;;;;4989022;28;20096;-59
2021/12/18 12:17:29;;;;;;;10.93;2.53;;;;;;;;;;4987861;28;20037;-60
2021/12/18 12:19:59;;;;;;;10.43;1.92;;;;;;;;;;4988801;28;20038;-60
2021/12/18 12:22:42;;;;;;;11.63;2.17;;;;;;;;;;4986912;28;20946;-59
2021/12/18 12:25:14;;;;;;;11.77;2.10;;;;;;;;;;4969771;28;20058;-59
2021/12/18 12:27:42;;;;;;;9.10;2.30;;;;;;;;;;4989965;28;20037;-60
2021/12/18 12:30:28;;;;;;;2.88;1.63;;;;;;;;;;4986466;28;20026;-60
2021/12/18 12:32:58;;;;;;;14.13;2.00;;;;;;;;;;4989202;28;20030;-60
2021/12/18 12:35:28;;;;;;;8.38;1.98;;;;;;;;;;4983976;28;20041;-60
2021/12/18 12:37:59;;;;;;;10.93;2.47;;;;;;;;;;4992969;28;20062;-61
2021/12/18 12:40:31;;;;;;;8.55;1.73;;;;;;;;;;5001480;28;20038;-61
2021/12/18 12:43:09;;;;;;;10.18;2.10;;;;;;;;;;4971356;28;20042;-58
2021/12/18 12:45:41;;;;;;;17.92;2.40;;;;;;;;;;4963032;28;20103;-60
2021/12/18 12:48:10;;;;;;;7.97;2.03;;;;;;;;;;4984352;28;20033;-59
2021/12/18 12:50:38;;;;;;;8.80;2.10;;;;;;;;;;4989417;28;20041;-60
2021/12/18 12:53:09;;;;;;;7.25;2.00;;;;;;;;;;4987439;28;20030;-59
2021/12/18 12:55:40;;;;;;;13.02;2.22;;;;;;;;;;4986401;28;20034;-60
2021/12/18 12:58:15;;;;;;;9.50;2.00;;;;;;;;;;4983058;28;20037;-59
2021/12/18 13:00:42;;;;;;;9.18;2.03;;;;;;;;;;5000859;28;20057;-59
2021/12/18 13:03:13;;;;;;;8.43;1.88;;;;;;;;;;4988736;28;20038;-60
2021/12/18 13:05:50;;;;;;;13.70;2.15;;;;;;;;;;4985881;28;20030;-60
2021/12/18 13:08:21;;;;;;;20.95;2.55;;;;;;;;;;4986625;28;20210;-60
2021/12/18 13:10:49;;;;;;;3.53;1.80;;;;;;;;;;4987590;28;20489;-60
2021/12/18 13:13:20;;;;;;;10.52;2.00;;;;;;;;;;4987407;28;20111;-60
2021/12/18 13:15:54;;;;;;;7.83;2.17;;;;;;;;;;4987219;28;20038;-60
2021/12/18 13:18:25;;;;;;;15.55;1.85;;;;;;;;;;4982864;28;20301;-60
2021/12/18 13:20:55;;;;;;;10.85;2.30;;;;;;;;;;4986642;28;20042;-60
2021/12/18 13:23:36;;;;;;;4.72;1.90;;;;;;;;;;4985387;28;20158;-60
2021/12/18 13:26:05;;;;;;;5.75;1.70;;;;;;;;;;5001390;28;20114;-59
2021/12/18 13:28:33;;;;;;;20.83;2.58;;;;;;;;;;4977597;28;21070;-59
2021/12/18 13:31:10;;;;;;;10.43;1.73;;;;;;;;;;4986090;28;21901;-58
2021/12/18 13:33:38;;;;;;;10.20;2.58;;;;;;;;;;4985689;28;20065;-59
2021/12/18 13:36:10;;;;;;;9.00;2.72;;;;;;;;;;4987439;28;20025;-60
2021/12/18 13:38:40;;;;;;;7.68;2.20;;;;;;;;;;4979159;28;20045;-59
2021/12/18 13:41:16;;;;;;;7.32;1.52;;;;;;;;;;4986355;28;20087;-60
2021/12/18 13:43:44;;;;;;;4.95;1.83;;;;;;;;;;4985017;28;20055;-59
2021/12/18 13:46:11;;;;;;;6.93;1.95;;;;;;;;;;4988063;28;20026;-59
2021/12/18 13:48:44;;;;;;;10.55;2.25;;;;;;;;;;4986731;28;20037;-60
2021/12/18 13:51:11;;;;;;;15.38;2.00;;;;;;;;;;4986194;28;20054;-60
2021/12/18 13:53:49;;;;;;;7.88;1.75;;;;;;;;;;4978665;28;20381;-60
2021/12/18 13:56:14;;;;;;;6.05;2.00;;;;;;;;;;4986542;28;20029;-60
2021/12/18 13:58:40;;;;;;;6.32;1.80;;;;;;;;;;4983489;28;20030;-61
2021/12/18 14:01:12;;;;;;;5.13;1.60;;;;;;;;;;4972916;28;20057;-61
2021/12/18 14:03:52;;;;;;;11.57;2.33;;;;;;;;;;4985060;28;20042;-60
2021/12/18 14:06:26;;;;;;;9.20;1.60;;;;;;;;;;4985426;28;20048;-60
2021/12/18 14:09:15;;;;;;;10.20;2.05;;;;;;;;;;4978163;28;20642;-59
2021/12/18 14:11:58;;;;;;;9.88;2.40;;;;;;;;;;4987019;28;20050;-61
2021/12/18 14:14:38;;;;;;;11.02;2.28;;;;;;;;;;4983617;28;20576;-61
2021/12/18 14:17:10;;;;;;;8.85;1.92;;;;;;;;;;4961180;28;20646;-60
2021/12/18 14:19:41;;;;;;;7.78;2.30;;;;;;;;;;4977801;28;20149;-60
2021/12/18 14:22:08;;;;;;;13.73;2.22;;;;;;;;;;4985432;28;20033;-60
2021/12/18 14:24:36;;;;;;;7.63;1.60;;;;;;;;;;4986536;28;20033;-60
2021/12/18 14:27:09;;;;;;;4.35;1.88;;;;;;;;;;4986759;28;20101;-59
2021/12/18 14:29:36;;;;;;;11.18;2.25;;;;;;;;;;4985079;28;20037;-59
2021/12/18 14:32:06;;;;;;;11.50;2.45;;;;;;;;;;4967714;28;20963;-60
2021/12/18 14:34:38;;;;;;;9.55;2.20;;;;;;;;;;4969270;28;20030;-61
2021/12/18 14:37:04;;;;;;;11.63;2.20;;;;;;;;;;4983311;28;20382;-59
2021/12/18 14:39:31;;;;;;;3.90;2.03;;;;;;;;;;4984295;28;20141;-59
2021/12/18 14:42:16;;;;;;;9.45;1.92;;;;;;;;;;4985584;28;21037;-61
2021/12/18 14:44:58;;;;;;;6.13;1.60;;;;;;;;;;4985545;28;20036;-59
2021/12/18 14:47:30;;;;;;;7.60;1.90;;;;;;;;;;4985810;28;20030;-60
2021/12/18 14:49:58;;;;;;;14.55;2.15;;;;;;;;;;4984537;28;20964;-59
2021/12/18 14:52:28;;;;;;;5.00;1.80;;;;;;;;;;4986284;28;20563;-60
2021/12/18 14:54:58;;;;;;;10.18;3.10;;;;;;;;;;4981357;28;20060;-60
2021/12/18 14:57:25;;;;;;;11.82;2.60;;;;;;;;;;4968893;28;20982;-60
2021/12/18 15:00:14;;;;;;;7.63;1.90;;;;;;;;;;4983724;28;20034;-60
2021/12/18 15:02:58;;;;;;;14.10;2.83;;;;;;;;;;4977274;28;20073;-59
2021/12/18 15:05:26;;;;;;;5.82;2.30;;;;;;;;;;4983516;28;20046;-60
2021/12/18 15:07:58;;;;;;;13.35;3.40;;;;;;;;;;4983760;28;20493;-60
2021/12/18 15:10:25;;;;;;;10.13;2.30;;;;;;;;;;4985828;28;20041;-59
2021/12/18 15:12:54;;;;;;;7.18;2.33;;;;;;;;;;4987587;28;20045;-61
2021/12/18 15:15:21;;;;;;;17.73;2.70;;;;;;;;;;4987015;28;20058;-60
2021/12/18 15:17:47;;;;;;;16.48;2.85;;;;;;;;;;4986488;28;20651;-61
2021/12/18 15:20:13;;;;;;;6.53;2.58;;;;;;;;;;5002467;28;20849;-60
2021/12/18 15:22:40;;;;;;;10.52;2.75;;;;;;;;;;4984845;28;20038;-61
2021/12/18 15:25:06;;;;;;;10.85;2.60;;;;;;;;;;5003961;28;21975;-60
2021/12/18 15:27:37;;;;;;;10.27;2.80;;;;;;;;;;4985427;28;20125;-60
2021/12/18 15:30:08;;;;;;;12.35;2.60;;;;;;;;;;4979607;28;20517;-60
2021/12/18 15:32:36;;;;;;;5.47;2.22;;;;;;;;;;4984144;28;21908;-59
2021/12/18 15:35:01;;;;;;;6.10;2.92;;;;;;;;;;4987153;28;22152;-59
2021/12/18 15:37:27;;;;;;;4.47;1.83;;;;;;;;;;4986042;28;20106;-59
2021/12/18 15:39:53;;;;;;;12.40;2.28;;;;;;;;;;4983572;28;20065;-61